sensor_id;sensor_type;location;lat;lon;timestamp;P1;durP1;ratioP1;P2;durP2;ratioP2
46222;SDS011;31943;51.410;7.564;2022-09-04T00:00:51;2.63;;;1.13;;
46222;SDS011;31943;51.410;7.564;2022-09-04T00:03:31;1.35;;;1.10;;
46222;SDS011;31943;51.410;7.564;2022-09-04T00:06:03;1.88;;;1.40;;
46222;SDS011;31943;51.410;7.564;2022-09-04T00:08:41;2.65;;;1.15;;
46222;SDS011;31943;51.410;7.564;2022-09-04T00:11:19;2.97;;;1.30;;
46222;SDS011;31943;51.410;7.564;2022-09-04T00:13:58;1.33;;;1.00;;
46222;SDS011;31943;51.410;7.564;2022-09-04T00:16:27;1.42;;;1.17;;
46222;SDS011;31943;51.410;7.564;2022-09-04T00:19:02;2.13;;;1.55;;
46222;SDS011;31943;51.410;7.564;2022-09-04T00:21:34;2.58;;;1.50;;
46222;SDS011;31943;51.410;7.564;2022-09-04T00:24:04;4.65;;;1.42;;
46222;SDS011;31943;51.410;7.564;2022-09-04T00:26:39;3.90;;;1.17;;
46222;SDS011;31943;51.410;7.564;2022-09-04T00:29:17;3.97;;;1.38;;
46222;SDS011;31943;51.410;7.564;2022-09-04T00:31:49;1.63;;;1.25;;
46222;SDS011;31943;51.410;7.564;2022-09-04T00:34:25;2.08;;;1.35;;
46222;SDS011;31943;51.410;7.564;2022-09-04T00:37:06;1.58;;;1.40;;
46222;SDS011;31943;51.410;7.564;2022-09-04T00:39:37;1.75;;;1.33;;
46222;SDS011;31943;51.410;7.564;2022-09-04T00:42:14;1.85;;;1.15;;
46222;SDS011;31943;51.410;7.564;2022-09-04T00:45:02;1.98;;;1.33;;
46222;SDS011;31943;51.410;7.564;2022-09-04T00:47:39;1.63;;;1.13;;
46222;SDS011;31943;51.410;7.564;2022-09-04T00:53:29;2.15;;;1.45;;
46222;SDS011;31943;51.410;7.564;2022-09-04T00:59:05;3.35;;;1.58;;
46222;SDS011;31943;51.410;7.564;2022-09-04T01:01:43;1.85;;;1.40;;
46222;SDS011;31943;51.410;7.564;2022-09-04T01:07:02;1.75;;;1.23;;
46222;SDS011;31943;51.410;7.564;2022-09-04T01:09:42;1.92;;;1.30;;
46222;SDS011;31943;51.410;7.564;2022-09-04T01:12:22;1.65;;;1.30;;
46222;SDS011;31943;51.410;7.564;2022-09-04T01:14:58;2.55;;;1.10;;
46222;SDS011;31943;51.410;7.564;2022-09-04T01:17:35;4.82;;;1.42;;
46222;SDS011;31943;51.410;7.564;2022-09-04T01:20:06;1.25;;;1.00;;
46222;SDS011;31943;51.410;7.564;2022-09-04T01:22:50;1.70;;;1.40;;
46222;SDS011;31943;51.410;7.564;2022-09-04T01:25:29;2.70;;;1.33;;
46222;SDS011;31943;51.410;7.564;2022-09-04T01:28:04;4.50;;;1.30;;
46222;SDS011;31943;51.410;7.564;2022-09-04T01:30:36;2.50;;;1.30;;
46222;SDS011;31943;51.410;7.564;2022-09-04T01:33:11;2.10;;;1.30;;
46222;SDS011;31943;51.410;7.564;2022-09-04T01:35:47;2.13;;;1.30;;
46222;SDS011;31943;51.410;7.564;2022-09-04T01:38:19;2.58;;;1.30;;
46222;SDS011;31943;51.410;7.564;2022-09-04T01:40:56;2.90;;;1.83;;
46222;SDS011;31943;51.410;7.564;2022-09-04T01:43:28;1.40;;;1.30;;
46222;SDS011;31943;51.410;7.564;2022-09-04T01:46:07;1.45;;;1.30;;
46222;SDS011;31943;51.410;7.564;2022-09-04T01:48:46;3.05;;;1.30;;
46222;SDS011;31943;51.410;7.564;2022-09-04T01:51:19;1.98;;;1.45;;
46222;SDS011;31943;51.410;7.564;2022-09-04T01:53:54;1.88;;;1.70;;
46222;SDS011;31943;51.410;7.564;2022-09-04T01:56:28;1.83;;;1.42;;
46222;SDS011;31943;51.410;7.564;2022-09-04T01:59:03;1.42;;;1.27;;
46222;SDS011;31943;51.410;7.564;2022-09-04T02:01:40;2.30;;;1.60;;
46222;SDS011;31943;51.410;7.564;2022-09-04T02:04:13;2.08;;;1.52;;
46222;SDS011;31943;51.410;7.564;2022-09-04T02:06:46;1.48;;;1.15;;
46222;SDS011;31943;51.410;7.564;2022-09-04T02:09:24;3.38;;;1.20;;
46222;SDS011;31943;51.410;7.564;2022-09-04T02:11:58;1.35;;;1.05;;
46222;SDS011;31943;51.410;7.564;2022-09-04T02:14:38;2.55;;;1.38;;
46222;SDS011;31943;51.410;7.564;2022-09-04T02:17:08;1.83;;;1.30;;
46222;SDS011;31943;51.410;7.564;2022-09-04T02:19:43;2.72;;;1.40;;
46222;SDS011;31943;51.410;7.564;2022-09-04T02:22:23;2.65;;;1.42;;
46222;SDS011;31943;51.410;7.564;2022-09-04T02:24:59;1.95;;;1.40;;
46222;SDS011;31943;51.410;7.564;2022-09-04T02:27:31;1.92;;;1.27;;
46222;SDS011;31943;51.410;7.564;2022-09-04T02:30:09;3.20;;;1.40;;
46222;SDS011;31943;51.410;7.564;2022-09-04T02:32:39;1.52;;;1.38;;
46222;SDS011;31943;51.410;7.564;2022-09-04T02:35:14;1.70;;;1.33;;
46222;SDS011;31943;51.410;7.564;2022-09-04T02:37:48;1.60;;;1.40;;
46222;SDS011;31943;51.410;7.564;2022-09-04T02:40:29;1.90;;;1.17;;
46222;SDS011;31943;51.410;7.564;2022-09-04T02:43:05;3.80;;;1.33;;
46222;SDS011;31943;51.410;7.564;2022-09-04T02:45:46;2.13;;;1.40;;
46222;SDS011;31943;51.410;7.564;2022-09-04T02:48:21;1.63;;;1.52;;
46222;SDS011;31943;51.410;7.564;2022-09-04T02:50:58;1.40;;;1.30;;
46222;SDS011;31943;51.410;7.564;2022-09-04T02:53:50;1.77;;;1.50;;
46222;SDS011;31943;51.410;7.564;2022-09-04T02:56:25;1.92;;;1.58;;
46222;SDS011;31943;51.410;7.564;2022-09-04T02:59:06;2.08;;;1.55;;
46222;SDS011;31943;51.410;7.564;2022-09-04T03:01:57;2.53;;;1.58;;
46222;SDS011;31943;51.410;7.564;2022-09-04T03:04:28;2.83;;;1.52;;
46222;SDS011;31943;51.410;7.564;2022-09-04T03:07:01;2.10;;;1.48;;
46222;SDS011;31943;51.410;7.564;2022-09-04T03:09:35;2.60;;;1.50;;
46222;SDS011;31943;51.410;7.564;2022-09-04T03:12:10;2.58;;;1.30;;
46222;SDS011;31943;51.410;7.564;2022-09-04T03:14:47;1.50;;;1.40;;
46222;SDS011;31943;51.410;7.564;2022-09-04T03:17:20;3.42;;;1.60;;
46222;SDS011;31943;51.410;7.564;2022-09-04T03:19:52;2.67;;;1.60;;
46222;SDS011;31943;51.410;7.564;2022-09-04T03:22:23;1.57;;;1.47;;
46222;SDS011;31943;51.410;7.564;2022-09-04T03:24:59;2.25;;;1.38;;
46222;SDS011;31943;51.410;7.564;2022-09-04T03:27:30;2.20;;;1.42;;
46222;SDS011;31943;51.410;7.564;2022-09-04T03:30:01;1.60;;;1.40;;
46222;SDS011;31943;51.410;7.564;2022-09-04T03:32:34;1.85;;;1.30;;
46222;SDS011;31943;51.410;7.564;2022-09-04T03:35:08;2.17;;;1.35;;
46222;SDS011;31943;51.410;7.564;2022-09-04T03:37:50;2.25;;;1.40;;
46222;SDS011;31943;51.410;7.564;2022-09-04T03:40:28;4.32;;;1.85;;
46222;SDS011;31943;51.410;7.564;2022-09-04T03:43:14;2.33;;;1.45;;
46222;SDS011;31943;51.410;7.564;2022-09-04T03:45:56;2.85;;;1.50;;
46222;SDS011;31943;51.410;7.564;2022-09-04T03:48:38;1.73;;;1.25;;
46222;SDS011;31943;51.410;7.564;2022-09-04T03:51:14;1.98;;;1.45;;
46222;SDS011;31943;51.410;7.564;2022-09-04T03:53:44;4.40;;;1.70;;
46222;SDS011;31943;51.410;7.564;2022-09-04T03:59:08;1.67;;;1.30;;
46222;SDS011;31943;51.410;7.564;2022-09-04T04:01:44;2.80;;;1.60;;
46222;SDS011;31943;51.410;7.564;2022-09-04T04:07:15;4.05;;;1.80;;
46222;SDS011;31943;51.410;7.564;2022-09-04T04:09:57;2.10;;;1.60;;
46222;SDS011;31943;51.410;7.564;2022-09-04T04:12:32;1.70;;;1.60;;
46222;SDS011;31943;51.410;7.564;2022-09-04T04:15:11;2.45;;;1.35;;
46222;SDS011;31943;51.410;7.564;2022-09-04T04:18:02;4.20;;;1.40;;
46222;SDS011;31943;51.410;7.564;2022-09-04T04:20:40;3.15;;;1.50;;
46222;SDS011;31943;51.410;7.564;2022-09-04T04:26:23;2.22;;;1.45;;
46222;SDS011;31943;51.410;7.564;2022-09-04T04:29:13;2.17;;;1.67;;
46222;SDS011;31943;51.410;7.564;2022-09-04T04:31:58;2.92;;;1.75;;
46222;SDS011;31943;51.410;7.564;2022-09-04T04:34:35;1.95;;;1.70;;
46222;SDS011;31943;51.410;7.564;2022-09-04T04:37:11;3.85;;;1.67;;
46222;SDS011;31943;51.410;7.564;2022-09-04T04:39:46;2.00;;;1.40;;
46222;SDS011;31943;51.410;7.564;2022-09-04T04:42:26;2.78;;;1.50;;
46222;SDS011;31943;51.410;7.564;2022-09-04T04:45:06;2.78;;;1.63;;
46222;SDS011;31943;51.410;7.564;2022-09-04T04:47:52;3.90;;;1.50;;
46222;SDS011;31943;51.410;7.564;2022-09-04T04:50:37;1.80;;;1.60;;
46222;SDS011;31943;51.410;7.564;2022-09-04T04:53:11;3.30;;;1.88;;
46222;SDS011;31943;51.410;7.564;2022-09-04T04:55:48;2.08;;;1.75;;
46222;SDS011;31943;51.410;7.564;2022-09-04T04:58:25;2.83;;;2.03;;
46222;SDS011;31943;51.410;7.564;2022-09-04T05:01:06;3.00;;;1.90;;
46222;SDS011;31943;51.410;7.564;2022-09-04T05:03:50;4.25;;;1.70;;
46222;SDS011;31943;51.410;7.564;2022-09-04T05:06:25;2.15;;;1.83;;
46222;SDS011;31943;51.410;7.564;2022-09-04T05:09:00;2.30;;;1.58;;
46222;SDS011;31943;51.410;7.564;2022-09-04T05:11:39;3.83;;;2.03;;
46222;SDS011;31943;51.410;7.564;2022-09-04T05:14:19;2.80;;;1.65;;
46222;SDS011;31943;51.410;7.564;2022-09-04T05:16:51;2.65;;;1.50;;
46222;SDS011;31943;51.410;7.564;2022-09-04T05:19:25;2.58;;;1.73;;
46222;SDS011;31943;51.410;7.564;2022-09-04T05:21:58;3.00;;;1.60;;
46222;SDS011;31943;51.410;7.564;2022-09-04T05:24:34;2.72;;;1.83;;
46222;SDS011;31943;51.410;7.564;2022-09-04T05:27:07;1.83;;;1.70;;
46222;SDS011;31943;51.410;7.564;2022-09-04T05:29:42;2.17;;;1.60;;
46222;SDS011;31943;51.410;7.564;2022-09-04T05:32:15;2.05;;;1.70;;
46222;SDS011;31943;51.410;7.564;2022-09-04T05:34:58;2.22;;;1.85;;
46222;SDS011;31943;51.410;7.564;2022-09-04T05:37:31;1.98;;;1.70;;
46222;SDS011;31943;51.410;7.564;2022-09-04T05:40:03;2.80;;;1.85;;
46222;SDS011;31943;51.410;7.564;2022-09-04T05:42:46;2.55;;;1.92;;
46222;SDS011;31943;51.410;7.564;2022-09-04T05:45:29;4.35;;;1.95;;
46222;SDS011;31943;51.410;7.564;2022-09-04T05:48:09;2.47;;;2.13;;
46222;SDS011;31943;51.410;7.564;2022-09-04T05:53:46;3.10;;;2.25;;
46222;SDS011;31943;51.410;7.564;2022-09-04T06:05:31;2.38;;;2.10;;
46222;SDS011;31943;51.410;7.564;2022-09-04T06:08:08;2.50;;;2.30;;
46222;SDS011;31943;51.410;7.564;2022-09-04T06:10:47;3.05;;;2.30;;
46222;SDS011;31943;51.410;7.564;2022-09-04T06:13:27;12.05;;;2.42;;
46222;SDS011;31943;51.410;7.564;2022-09-04T06:16:30;3.42;;;2.10;;
46222;SDS011;31943;51.410;7.564;2022-09-04T06:19:15;3.17;;;2.50;;
46222;SDS011;31943;51.410;7.564;2022-09-04T06:21:58;3.67;;;2.42;;
46222;SDS011;31943;51.410;7.564;2022-09-04T06:24:45;3.95;;;2.00;;
46222;SDS011;31943;51.410;7.564;2022-09-04T06:27:33;4.18;;;2.08;;
46222;SDS011;31943;51.410;7.564;2022-09-04T06:30:11;2.88;;;2.30;;
46222;SDS011;31943;51.410;7.564;2022-09-04T06:32:45;2.67;;;2.42;;
46222;SDS011;31943;51.410;7.564;2022-09-04T06:35:40;4.65;;;2.22;;
46222;SDS011;31943;51.410;7.564;2022-09-04T06:38:26;3.70;;;2.63;;
46222;SDS011;31943;51.410;7.564;2022-09-04T06:43:59;3.53;;;2.55;;
46222;SDS011;31943;51.410;7.564;2022-09-04T06:46:36;2.83;;;2.25;;
46222;SDS011;31943;51.410;7.564;2022-09-04T06:49:07;3.40;;;2.65;;
46222;SDS011;31943;51.410;7.564;2022-09-04T06:51:43;2.85;;;2.63;;
46222;SDS011;31943;51.410;7.564;2022-09-04T06:54:30;2.97;;;2.45;;
46222;SDS011;31943;51.410;7.564;2022-09-04T06:57:13;4.03;;;2.38;;
46222;SDS011;31943;51.410;7.564;2022-09-04T07:00:03;2.83;;;2.17;;
46222;SDS011;31943;51.410;7.564;2022-09-04T07:02:37;4.82;;;2.65;;
46222;SDS011;31943;51.410;7.564;2022-09-04T07:05:20;2.53;;;2.33;;
46222;SDS011;31943;51.410;7.564;2022-09-04T07:07:59;4.25;;;2.20;;
46222;SDS011;31943;51.410;7.564;2022-09-04T07:10:32;2.30;;;2.08;;
46222;SDS011;31943;51.410;7.564;2022-09-04T07:13:09;3.08;;;2.55;;
46222;SDS011;31943;51.410;7.564;2022-09-04T07:18:58;3.83;;;2.22;;
46222;SDS011;31943;51.410;7.564;2022-09-04T07:21:47;2.85;;;2.30;;
46222;SDS011;31943;51.410;7.564;2022-09-04T07:27:28;3.70;;;2.60;;
46222;SDS011;31943;51.410;7.564;2022-09-04T07:30:01;2.35;;;1.90;;
46222;SDS011;31943;51.410;7.564;2022-09-04T07:32:29;3.38;;;2.10;;
46222;SDS011;31943;51.410;7.564;2022-09-04T07:35:03;2.42;;;2.00;;
46222;SDS011;31943;51.410;7.564;2022-09-04T07:37:41;3.25;;;1.88;;
46222;SDS011;31943;51.410;7.564;2022-09-04T07:40:15;3.35;;;1.75;;
46222;SDS011;31943;51.410;7.564;2022-09-04T07:42:46;2.38;;;1.77;;
46222;SDS011;31943;51.410;7.564;2022-09-04T07:45:21;3.17;;;1.70;;
46222;SDS011;31943;51.410;7.564;2022-09-04T07:47:56;3.08;;;1.90;;
46222;SDS011;31943;51.410;7.564;2022-09-04T07:50:31;2.08;;;1.50;;
46222;SDS011;31943;51.410;7.564;2022-09-04T07:53:02;3.17;;;1.80;;
46222;SDS011;31943;51.410;7.564;2022-09-04T07:55:42;3.30;;;1.88;;
46222;SDS011;31943;51.410;7.564;2022-09-04T08:04:15;2.53;;;1.52;;
46222;SDS011;31943;51.410;7.564;2022-09-04T08:06:55;1.95;;;1.40;;
46222;SDS011;31943;51.410;7.564;2022-09-04T08:09:29;2.65;;;1.50;;
46222;SDS011;31943;51.410;7.564;2022-09-04T08:12:17;2.10;;;1.83;;
46222;SDS011;31943;51.410;7.564;2022-09-04T08:14:59;1.90;;;1.63;;
46222;SDS011;31943;51.410;7.564;2022-09-04T08:17:54;1.90;;;1.80;;
46222;SDS011;31943;51.410;7.564;2022-09-04T08:20:46;3.10;;;2.80;;
46222;SDS011;31943;51.410;7.564;2022-09-04T08:26:25;3.25;;;1.80;;
46222;SDS011;31943;51.410;7.564;2022-09-04T08:29:02;2.42;;;1.77;;
46222;SDS011;31943;51.410;7.564;2022-09-04T08:31:39;2.35;;;1.70;;
46222;SDS011;31943;51.410;7.564;2022-09-04T08:34:13;2.38;;;2.17;;
46222;SDS011;31943;51.410;7.564;2022-09-04T08:36:54;4.05;;;3.70;;
46222;SDS011;31943;51.410;7.564;2022-09-04T08:39:28;4.10;;;1.88;;
46222;SDS011;31943;51.410;7.564;2022-09-04T08:42:05;1.95;;;1.83;;
46222;SDS011;31943;51.410;7.564;2022-09-04T08:50:53;2.22;;;1.98;;
46222;SDS011;31943;51.410;7.564;2022-09-04T08:56:40;4.65;;;2.13;;
46222;SDS011;31943;51.410;7.564;2022-09-04T09:17:35;4.18;;;2.00;;
46222;SDS011;31943;51.410;7.564;2022-09-04T09:20:09;2.78;;;1.58;;
46222;SDS011;31943;51.410;7.564;2022-09-04T09:25:42;2.47;;;1.85;;
46222;SDS011;31943;51.410;7.564;2022-09-04T09:28:20;2.20;;;2.00;;
46222;SDS011;31943;51.410;7.564;2022-09-04T09:37:36;2.50;;;2.08;;
46222;SDS011;31943;51.410;7.564;2022-09-04T09:43:39;2.55;;;2.00;;
46222;SDS011;31943;51.410;7.564;2022-09-04T09:46:52;4.15;;;2.67;;
46222;SDS011;31943;51.410;7.564;2022-09-04T09:52:48;3.72;;;2.40;;
46222;SDS011;31943;51.410;7.564;2022-09-04T10:01:41;2.45;;;2.15;;
46222;SDS011;31943;51.410;7.564;2022-09-04T10:07:42;2.10;;;1.90;;
46222;SDS011;31943;51.410;7.564;2022-09-04T10:13:32;2.58;;;1.75;;
46222;SDS011;31943;51.410;7.564;2022-09-04T10:16:18;3.22;;;2.20;;
46222;SDS011;31943;51.410;7.564;2022-09-04T10:19:19;3.85;;;2.10;;
46222;SDS011;31943;51.410;7.564;2022-09-04T10:22:07;2.05;;;1.70;;
46222;SDS011;31943;51.410;7.564;2022-09-04T10:31:16;2.00;;;1.90;;
46222;SDS011;31943;51.410;7.564;2022-09-04T10:34:00;2.20;;;2.00;;
46222;SDS011;31943;51.410;7.564;2022-09-04T10:36:45;2.67;;;2.08;;
46222;SDS011;31943;51.410;7.564;2022-09-04T10:39:22;2.83;;;2.10;;
46222;SDS011;31943;51.410;7.564;2022-09-04T10:42:04;2.60;;;2.10;;
46222;SDS011;31943;51.410;7.564;2022-09-04T10:44:38;2.20;;;2.00;;
46222;SDS011;31943;51.410;7.564;2022-09-04T10:47:11;3.53;;;2.30;;
46222;SDS011;31943;51.410;7.564;2022-09-04T10:49:56;3.17;;;2.20;;
46222;SDS011;31943;51.410;7.564;2022-09-04T10:58:25;2.78;;;2.20;;
46222;SDS011;31943;51.410;7.564;2022-09-04T11:01:00;2.53;;;2.33;;
46222;SDS011;31943;51.410;7.564;2022-09-04T11:03:46;2.30;;;2.10;;
46222;SDS011;31943;51.410;7.564;2022-09-04T11:06:28;2.95;;;2.60;;
46222;SDS011;31943;51.410;7.564;2022-09-04T11:12:25;3.35;;;2.08;;
46222;SDS011;31943;51.410;7.564;2022-09-04T11:15:12;3.40;;;2.10;;
46222;SDS011;31943;51.410;7.564;2022-09-04T11:18:02;2.35;;;2.15;;
46222;SDS011;31943;51.410;7.564;2022-09-04T11:24:08;2.17;;;2.00;;
46222;SDS011;31943;51.410;7.564;2022-09-04T11:27:04;2.95;;;2.33;;
46222;SDS011;31943;51.410;7.564;2022-09-04T11:30:02;4.05;;;2.38;;
46222;SDS011;31943;51.410;7.564;2022-09-04T11:35:47;4.72;;;2.80;;
46222;SDS011;31943;51.410;7.564;2022-09-04T11:38:34;5.00;;;2.50;;
46222;SDS011;31943;51.410;7.564;2022-09-04T11:41:25;3.53;;;2.25;;
46222;SDS011;31943;51.410;7.564;2022-09-04T11:44:33;3.83;;;2.40;;
46222;SDS011;31943;51.410;7.564;2022-09-04T11:47:19;4.00;;;2.60;;
46222;SDS011;31943;51.410;7.564;2022-09-04T11:49:55;3.13;;;2.65;;
46222;SDS011;31943;51.410;7.564;2022-09-04T11:52:34;4.43;;;2.38;;
46222;SDS011;31943;51.410;7.564;2022-09-04T11:55:23;6.65;;;2.70;;
46222;SDS011;31943;51.410;7.564;2022-09-04T11:58:15;4.35;;;2.25;;
46222;SDS011;31943;51.410;7.564;2022-09-04T12:00:58;4.68;;;2.70;;
46222;SDS011;31943;51.410;7.564;2022-09-04T12:03:38;2.28;;;2.03;;
46222;SDS011;31943;51.410;7.564;2022-09-04T12:06:35;3.15;;;2.22;;
46222;SDS011;31943;51.410;7.564;2022-09-04T12:09:18;2.53;;;2.10;;
46222;SDS011;31943;51.410;7.564;2022-09-04T12:15:20;3.45;;;2.35;;
46222;SDS011;31943;51.410;7.564;2022-09-04T12:18:08;3.45;;;2.45;;
46222;SDS011;31943;51.410;7.564;2022-09-04T12:24:05;2.40;;;2.10;;
46222;SDS011;31943;51.410;7.564;2022-09-04T12:26:57;3.17;;;2.28;;
46222;SDS011;31943;51.410;7.564;2022-09-04T12:29:46;3.90;;;2.30;;
46222;SDS011;31943;51.410;7.564;2022-09-04T12:35:35;2.97;;;1.80;;
46222;SDS011;31943;51.410;7.564;2022-09-04T12:38:24;2.65;;;2.00;;
46222;SDS011;31943;51.410;7.564;2022-09-04T12:41:14;3.17;;;2.30;;
46222;SDS011;31943;51.410;7.564;2022-09-04T12:43:50;2.60;;;2.30;;
46222;SDS011;31943;51.410;7.564;2022-09-04T12:46:34;2.70;;;2.25;;
46222;SDS011;31943;51.410;7.564;2022-09-04T12:49:24;2.35;;;2.15;;
46222;SDS011;31943;51.410;7.564;2022-09-04T12:52:05;3.85;;;2.08;;
46222;SDS011;31943;51.410;7.564;2022-09-04T12:54:38;4.18;;;2.13;;
46222;SDS011;31943;51.410;7.564;2022-09-04T12:57:14;2.58;;;1.90;;
46222;SDS011;31943;51.410;7.564;2022-09-04T12:59:55;3.80;;;2.40;;
46222;SDS011;31943;51.410;7.564;2022-09-04T13:02:31;3.58;;;2.55;;
46222;SDS011;31943;51.410;7.564;2022-09-04T13:05:08;2.72;;;1.80;;
46222;SDS011;31943;51.410;7.564;2022-09-04T13:07:57;2.95;;;2.38;;
46222;SDS011;31943;51.410;7.564;2022-09-04T13:10:34;3.55;;;2.40;;
46222;SDS011;31943;51.410;7.564;2022-09-04T13:13:08;2.47;;;2.10;;
46222;SDS011;31943;51.410;7.564;2022-09-04T13:15:46;3.50;;;2.15;;
46222;SDS011;31943;51.410;7.564;2022-09-04T13:18:25;2.33;;;2.13;;
46222;SDS011;31943;51.410;7.564;2022-09-04T13:21:05;2.35;;;1.95;;
46222;SDS011;31943;51.410;7.564;2022-09-04T13:23:43;2.40;;;2.20;;
46222;SDS011;31943;51.410;7.564;2022-09-04T13:26:23;2.83;;;2.05;;
46222;SDS011;31943;51.410;7.564;2022-09-04T13:29:04;2.27;;;2.07;;
46222;SDS011;31943;51.410;7.564;2022-09-04T13:31:50;4.10;;;2.00;;
46222;SDS011;31943;51.410;7.564;2022-09-04T13:34:35;2.92;;;1.90;;
46222;SDS011;31943;51.410;7.564;2022-09-04T13:37:13;2.00;;;1.67;;
46222;SDS011;31943;51.410;7.564;2022-09-04T13:39:54;2.35;;;2.10;;
46222;SDS011;31943;51.410;7.564;2022-09-04T13:45:27;2.85;;;1.80;;
46222;SDS011;31943;51.410;7.564;2022-09-04T13:47:58;3.00;;;1.92;;
46222;SDS011;31943;51.410;7.564;2022-09-04T13:50:31;2.15;;;1.90;;
46222;SDS011;31943;51.410;7.564;2022-09-04T13:53:04;3.15;;;1.65;;
46222;SDS011;31943;51.410;7.564;2022-09-04T13:55:37;2.75;;;2.00;;
46222;SDS011;31943;51.410;7.564;2022-09-04T13:58:08;2.88;;;1.80;;
46222;SDS011;31943;51.410;7.564;2022-09-04T14:00:39;2.55;;;2.00;;
46222;SDS011;31943;51.410;7.564;2022-09-04T14:03:09;3.38;;;2.10;;
46222;SDS011;31943;51.410;7.564;2022-09-04T14:05:39;2.30;;;1.70;;
46222;SDS011;31943;51.410;7.564;2022-09-04T14:08:06;3.65;;;2.00;;
46222;SDS011;31943;51.410;7.564;2022-09-04T14:10:47;3.03;;;2.30;;
46222;SDS011;31943;51.410;7.564;2022-09-04T14:13:32;1.95;;;1.75;;
46222;SDS011;31943;51.410;7.564;2022-09-04T14:16:10;4.25;;;1.70;;
46222;SDS011;31943;51.410;7.564;2022-09-04T14:18:41;1.70;;;1.50;;
46222;SDS011;31943;51.410;7.564;2022-09-04T14:21:16;2.95;;;1.95;;
46222;SDS011;31943;51.410;7.564;2022-09-04T14:23:54;1.80;;;1.70;;
46222;SDS011;31943;51.410;7.564;2022-09-04T14:26:37;2.80;;;1.52;;
46222;SDS011;31943;51.410;7.564;2022-09-04T14:29:23;1.92;;;1.52;;
46222;SDS011;31943;51.410;7.564;2022-09-04T14:32:05;3.03;;;1.80;;
46222;SDS011;31943;51.410;7.564;2022-09-04T14:34:41;2.05;;;1.42;;
46222;SDS011;31943;51.410;7.564;2022-09-04T14:37:40;1.92;;;1.63;;
46222;SDS011;31943;51.410;7.564;2022-09-04T14:40:27;2.30;;;1.90;;
46222;SDS011;31943;51.410;7.564;2022-09-04T14:43:02;4.00;;;1.63;;
46222;SDS011;31943;51.410;7.564;2022-09-04T14:45:47;2.60;;;1.88;;
46222;SDS011;31943;51.410;7.564;2022-09-04T14:48:19;3.33;;;1.50;;
46222;SDS011;31943;51.410;7.564;2022-09-04T14:50:46;1.65;;;1.50;;
46222;SDS011;31943;51.410;7.564;2022-09-04T14:53:18;1.75;;;1.30;;
46222;SDS011;31943;51.410;7.564;2022-09-04T14:56:04;2.10;;;1.90;;
46222;SDS011;31943;51.410;7.564;2022-09-04T14:58:44;1.55;;;1.45;;
46222;SDS011;31943;51.410;7.564;2022-09-04T15:01:16;2.65;;;1.48;;
46222;SDS011;31943;51.410;7.564;2022-09-04T15:03:44;2.60;;;1.42;;
46222;SDS011;31943;51.410;7.564;2022-09-04T15:06:15;1.40;;;1.30;;
46222;SDS011;31943;51.410;7.564;2022-09-04T15:08:45;2.38;;;1.80;;
46222;SDS011;31943;51.410;7.564;2022-09-04T15:11:24;2.60;;;1.88;;
46222;SDS011;31943;51.410;7.564;2022-09-04T15:13:55;2.10;;;1.65;;
46222;SDS011;31943;51.410;7.564;2022-09-04T15:16:28;1.95;;;1.58;;
46222;SDS011;31943;51.410;7.564;2022-09-04T15:19:10;3.45;;;1.60;;
46222;SDS011;31943;51.410;7.564;2022-09-04T15:21:52;3.15;;;1.48;;
46222;SDS011;31943;51.410;7.564;2022-09-04T15:24:30;2.33;;;1.48;;
46222;SDS011;31943;51.410;7.564;2022-09-04T15:27:01;4.90;;;1.75;;
46222;SDS011;31943;51.410;7.564;2022-09-04T15:29:38;1.40;;;1.30;;
46222;SDS011;31943;51.410;7.564;2022-09-04T15:32:11;2.63;;;1.30;;
46222;SDS011;31943;51.410;7.564;2022-09-04T15:34:48;1.80;;;1.20;;
46222;SDS011;31943;51.410;7.564;2022-09-04T15:37:15;2.83;;;1.42;;
46222;SDS011;31943;51.410;7.564;2022-09-04T15:39:49;1.15;;;1.05;;
46222;SDS011;31943;51.410;7.564;2022-09-04T15:42:30;2.10;;;1.20;;
46222;SDS011;31943;51.410;7.564;2022-09-04T15:45:02;2.10;;;1.45;;
46222;SDS011;31943;51.410;7.564;2022-09-04T15:47:42;3.13;;;1.23;;
46222;SDS011;31943;51.410;7.564;2022-09-04T15:50:27;1.92;;;1.30;;
46222;SDS011;31943;51.410;7.564;2022-09-04T15:52:59;1.98;;;1.08;;
46222;SDS011;31943;51.410;7.564;2022-09-04T15:55:38;1.33;;;1.10;;
46222;SDS011;31943;51.410;7.564;2022-09-04T15:58:06;2.28;;;1.30;;
46222;SDS011;31943;51.410;7.564;2022-09-04T16:01:03;2.22;;;1.17;;
46222;SDS011;31943;51.410;7.564;2022-09-04T16:03:34;1.95;;;1.05;;
46222;SDS011;31943;51.410;7.564;2022-09-04T16:06:14;1.73;;;1.10;;
46222;SDS011;31943;51.410;7.564;2022-09-04T16:08:43;1.83;;;0.90;;
46222;SDS011;31943;51.410;7.564;2022-09-04T16:11:18;1.13;;;1.02;;
46222;SDS011;31943;51.410;7.564;2022-09-04T16:13:53;3.13;;;1.23;;
46222;SDS011;31943;51.410;7.564;2022-09-04T16:16:24;3.20;;;1.45;;
46222;SDS011;31943;51.410;7.564;2022-09-04T16:18:58;4.22;;;2.58;;
46222;SDS011;31943;51.410;7.564;2022-09-04T16:21:30;2.60;;;1.88;;
46222;SDS011;31943;51.410;7.564;2022-09-04T16:24:04;1.80;;;1.13;;
46222;SDS011;31943;51.410;7.564;2022-09-04T16:26:32;1.40;;;1.30;;
46222;SDS011;31943;51.410;7.564;2022-09-04T16:29:00;2.13;;;1.17;;
46222;SDS011;31943;51.410;7.564;2022-09-04T16:31:33;1.67;;;1.10;;
46222;SDS011;31943;51.410;7.564;2022-09-04T16:34:00;5.10;;;1.73;;
46222;SDS011;31943;51.410;7.564;2022-09-04T16:36:32;2.47;;;1.48;;
46222;SDS011;31943;51.410;7.564;2022-09-04T16:39:04;1.50;;;1.25;;
46222;SDS011;31943;51.410;7.564;2022-09-04T16:41:34;1.33;;;1.15;;
46222;SDS011;31943;51.410;7.564;2022-09-04T16:44:07;1.92;;;1.20;;
46222;SDS011;31943;51.410;7.564;2022-09-04T16:46:41;1.38;;;1.13;;
46222;SDS011;31943;51.410;7.564;2022-09-04T16:49:13;1.48;;;1.10;;
46222;SDS011;31943;51.410;7.564;2022-09-04T16:51:45;1.98;;;0.93;;
46222;SDS011;31943;51.410;7.564;2022-09-04T16:54:16;1.48;;;1.38;;
46222;SDS011;31943;51.410;7.564;2022-09-04T16:56:45;3.20;;;1.40;;
46222;SDS011;31943;51.410;7.564;2022-09-04T16:59:17;1.98;;;1.58;;
46222;SDS011;31943;51.410;7.564;2022-09-04T17:01:50;4.43;;;1.48;;
46222;SDS011;31943;51.410;7.564;2022-09-04T17:04:25;2.10;;;1.33;;
46222;SDS011;31943;51.410;7.564;2022-09-04T17:07:01;2.15;;;1.30;;
46222;SDS011;31943;51.410;7.564;2022-09-04T17:09:40;2.78;;;1.33;;
46222;SDS011;31943;51.410;7.564;2022-09-04T17:12:16;1.88;;;1.48;;
46222;SDS011;31943;51.410;7.564;2022-09-04T17:14:50;3.70;;;1.63;;
46222;SDS011;31943;51.410;7.564;2022-09-04T17:17:27;2.30;;;1.40;;
46222;SDS011;31943;51.410;7.564;2022-09-04T17:20:00;2.45;;;1.45;;
46222;SDS011;31943;51.410;7.564;2022-09-04T17:22:30;1.73;;;1.52;;
46222;SDS011;31943;51.410;7.564;2022-09-04T17:25:08;1.52;;;1.40;;
46222;SDS011;31943;51.410;7.564;2022-09-04T17:27:43;3.75;;;1.50;;
46222;SDS011;31943;51.410;7.564;2022-09-04T17:33:22;2.75;;;1.50;;
46222;SDS011;31943;51.410;7.564;2022-09-04T17:35:56;1.80;;;1.20;;
46222;SDS011;31943;51.410;7.564;2022-09-04T17:38:28;1.73;;;1.25;;
46222;SDS011;31943;51.410;7.564;2022-09-04T17:41:02;3.88;;;1.40;;
46222;SDS011;31943;51.410;7.564;2022-09-04T17:43:36;1.98;;;1.40;;
46222;SDS011;31943;51.410;7.564;2022-09-04T17:46:14;2.15;;;1.35;;
46222;SDS011;31943;51.410;7.564;2022-09-04T17:48:49;1.75;;;1.60;;
46222;SDS011;31943;51.410;7.564;2022-09-04T17:51:16;2.13;;;1.50;;
46222;SDS011;31943;51.410;7.564;2022-09-04T17:53:48;3.75;;;1.77;;
46222;SDS011;31943;51.410;7.564;2022-09-04T17:56:19;3.13;;;1.70;;
46222;SDS011;31943;51.410;7.564;2022-09-04T17:58:49;2.88;;;1.50;;
46222;SDS011;31943;51.410;7.564;2022-09-04T18:01:21;2.78;;;1.65;;
46222;SDS011;31943;51.410;7.564;2022-09-04T18:03:56;2.60;;;1.60;;
46222;SDS011;31943;51.410;7.564;2022-09-04T18:06:35;4.75;;;1.85;;
46222;SDS011;31943;51.410;7.564;2022-09-04T18:09:05;6.15;;;1.60;;
46222;SDS011;31943;51.410;7.564;2022-09-04T18:11:38;5.90;;;1.70;;
46222;SDS011;31943;51.410;7.564;2022-09-04T18:14:10;6.13;;;2.10;;